Time;durP1;ratioP1;P1;durP2;ratioP2;P2;SDS_P1;SDS_P2;PMS_P1;PMS_P2;Temp;Humidity;BMP_temperature;BMP_pressure;BME280_temperature;BME280_humidity;BME280_pressure;Samples;Min_cycle;Max_cycle;Signal;HPM_P1;HPM_P2
2023/03/23 00:02:28;;;;;;;13.13;10.57;;;10.40;99.90;;;;;;5135452;27;20047;-78
2023/03/23 00:04:54;;;;;;;19.37;14.43;;;10.40;99.90;;;;;;5134981;27;20042;-79
2023/03/23 00:07:27;;;;;;;18.27;13.97;;;10.40;99.90;;;;;;5147996;27;20287;-79
2023/03/23 00:09:55;;;;;;;21.63;18.77;;;10.40;99.90;;;;;;5155555;27;20272;-79
2023/03/23 00:12:32;;;;;;;23.60;18.20;;;10.50;99.90;;;;;;5155757;27;20363;-79
2023/03/23 00:15:00;;;;;;;25.50;20.70;;;10.50;99.90;;;;;;5155484;27;20372;-79
2023/03/23 00:17:27;;;;;;;26.77;20.83;;;10.50;99.90;;;;;;5137167;27;20382;-78
2023/03/23 00:19:53;;;;;;;30.50;22.37;;;10.50;99.90;;;;;;5155358;27;20279;-78
2023/03/23 00:22:21;;;;;;;26.23;22.50;;;10.50;99.90;;;;;;5155532;27;20280;-78
2023/03/23 00:24:50;;;;;;;34.70;24.27;;;10.50;99.90;;;;;;5136929;27;20462;-78
2023/03/23 00:27:16;;;;;;;30.33;24.00;;;10.50;99.90;;;;;;5154682;27;20367;-78
2023/03/23 00:29:44;;;;;;;24.27;20.07;;;10.50;99.90;;;;;;5136704;27;20283;-78
2023/03/23 00:32:12;;;;;;;30.30;24.27;;;10.60;99.90;;;;;;5155604;27;20295;-78
2023/03/23 00:34:43;;;;;;;28.17;21.27;;;10.60;99.90;;;;;;5155319;27;20282;-77
2023/03/23 00:37:09;;;;;;;23.83;20.30;;;10.60;99.90;;;;;;5155658;27;20276;-78
2023/03/23 00:39:36;;;;;;;26.60;20.07;;;10.60;99.90;;;;;;5155301;27;20280;-77
2023/03/23 00:42:03;;;;;;;22.47;16.53;;;10.60;99.90;;;;;;5154648;27;20851;-77
2023/03/23 00:44:34;;;;;;;16.87;13.27;;;10.60;99.90;;;;;;5155100;27;20311;-77
2023/03/23 00:47:01;;;;;;;15.40;10.67;;;10.60;99.90;;;;;;5154905;27;20754;-78
2023/03/23 00:49:27;;;;;;;12.43;9.30;;;10.60;99.90;;;;;;5155153;27;20272;-77
2023/03/23 00:51:54;;;;;;;12.73;8.17;;;10.60;99.90;;;;;;5136616;27;20357;-78
2023/03/23 00:54:21;;;;;;;13.87;7.60;;;10.60;99.90;;;;;;5155012;27;20268;-78
2023/03/23 00:56:47;;;;;;;11.03;7.13;;;10.60;99.90;;;;;;5154815;27;20605;-78
2023/03/23 00:59:13;;;;;;;10.17;6.83;;;10.60;99.90;;;;;;5154997;27;20408;-78
2023/03/23 01:01:39;;;;;;;10.53;7.47;;;10.60;99.90;;;;;;5155052;27;20414;-78
2023/03/23 01:04:05;;;;;;;9.97;6.40;;;10.60;99.90;;;;;;5154565;27;20279;-78
2023/03/23 01:06:38;;;;;;;13.50;7.23;;;10.50;99.90;;;;;;5154592;27;20310;-77
2023/03/23 01:09:06;;;;;;;13.20;7.10;;;10.50;99.90;;;;;;5154270;27;20490;-78
2023/03/23 01:11:31;;;;;;;12.60;7.40;;;10.50;99.90;;;;;;5155016;27;20619;-78
2023/03/23 01:13:58;;;;;;;13.20;7.57;;;10.50;99.90;;;;;;5118904;27;20284;-78
2023/03/23 01:16:24;;;;;;;14.50;9.20;;;10.50;99.90;;;;;;5154685;27;20512;-78
2023/03/23 01:18:50;;;;;;;14.40;8.73;;;10.40;99.90;;;;;;5154445;27;20465;-78
2023/03/23 01:21:18;;;;;;;14.90;9.80;;;10.40;99.90;;;;;;5154665;27;20379;-77
2023/03/23 01:23:44;;;;;;;15.43;9.07;;;10.40;99.90;;;;;;5136491;27;20050;-78
2023/03/23 01:26:15;;;;;;;12.60;9.70;;;10.40;99.90;;;;;;5154422;27;20402;-78
2023/03/23 01:28:41;;;;;;;13.93;9.17;;;10.40;99.90;;;;;;5136617;27;20295;-78
2023/03/23 01:31:12;;;;;;;13.87;10.23;;;10.40;99.90;;;;;;5154220;27;20272;-78
2023/03/23 01:33:38;;;;;;;14.73;11.27;;;10.50;99.90;;;;;;5154753;27;20399;-78
2023/03/23 01:36:07;;;;;;;15.33;10.53;;;10.50;99.90;;;;;;5154213;27;20282;-78
2023/03/23 01:38:34;;;;;;;19.40;11.50;;;10.40;99.90;;;;;;5139504;27;20331;-78
2023/03/23 01:41:01;;;;;;;15.93;10.87;;;10.50;99.90;;;;;;5158420;27;20268;-78
2023/03/23 01:43:27;;;;;;;19.13;10.70;;;10.50;99.90;;;;;;5158774;27;20303;-78
2023/03/23 01:45:53;;;;;;;15.83;10.57;;;10.50;99.90;;;;;;5157962;27;20335;-78
2023/03/23 01:48:21;;;;;;;17.10;10.57;;;10.50;99.90;;;;;;5140214;27;20042;-78
2023/03/23 01:51:01;;;;;;;18.30;10.77;;;10.50;99.90;;;;;;5158410;27;20372;-79
2023/03/23 01:53:38;;;;;;;16.37;9.30;;;10.60;99.90;;;;;;5158560;27;20275;-79
2023/03/23 01:56:06;;;;;;;19.07;10.50;;;10.60;99.90;;;;;;5158179;27;20279;-78
2023/03/23 01:58:34;;;;;;;15.67;9.53;;;10.60;99.90;;;;;;5158458;27;20868;-78
2023/03/23 02:01:07;;;;;;;13.93;9.57;;;10.60;99.90;;;;;;5158143;27;20279;-78
2023/03/23 02:03:36;;;;;;;15.33;9.27;;;10.60;99.90;;;;;;5158468;27;20333;-79
2023/03/23 02:06:02;;;;;;;18.33;9.07;;;10.60;99.90;;;;;;5139253;27;20652;-78
2023/03/23 02:08:29;;;;;;;15.63;9.23;;;10.60;99.90;;;;;;5158269;27;20280;-78
2023/03/23 02:10:55;;;;;;;13.40;9.00;;;10.70;99.90;;;;;;5157628;27;20601;-79
2023/03/23 02:13:22;;;;;;;14.67;9.00;;;10.70;99.90;;;;;;5139904;27;20340;-79
2023/03/23 02:16:11;;;;;;;13.90;8.60;;;10.70;99.90;;;;;;5158361;27;20031;-79
2023/03/23 02:19:07;;;;;;;15.73;8.43;;;10.70;99.90;;;;;;5158259;27;20264;-79
2023/03/23 02:21:58;;;;;;;12.88;8.32;;;10.70;99.90;;;;;;5158027;27;20325;-79
2023/03/23 02:24:32;;;;;;;13.00;7.47;;;10.70;99.90;;;;;;5158095;27;20094;-79
2023/03/23 02:27:08;;;;;;;14.77;8.18;;;10.70;99.90;;;;;;5139217;27;20311;-78
2023/03/23 02:30:08;;;;;;;13.70;8.47;;;10.70;99.90;;;;;;5157787;27;20114;-78
2023/03/23 02:32:55;;;;;;;13.50;7.67;;;10.70;99.90;;;;;;5139590;27;20348;-79
2023/03/23 02:35:32;;;;;;;15.37;7.63;;;10.70;99.90;;;;;;5139500;27;20363;-79
2023/03/23 02:38:05;;;;;;;11.53;6.90;;;10.70;99.90;;;;;;5157493;27;20285;-78
2023/03/23 02:40:40;;;;;;;10.70;6.90;;;10.70;99.90;;;;;;5157699;27;20276;-79
2023/03/23 02:43:10;;;;;;;11.13;6.87;;;10.70;99.90;;;;;;5157362;27;20363;-78
2023/03/23 02:45:37;;;;;;;9.43;6.03;;;10.70;99.90;;;;;;5157464;27;20831;-78
2023/03/23 02:48:05;;;;;;;14.03;7.07;;;10.70;99.90;;;;;;5138574;27;20276;-78
2023/03/23 02:50:33;;;;;;;15.10;6.43;;;10.70;99.90;;;;;;5138275;27;20271;-79
2023/03/23 02:53:01;;;;;;;16.73;7.17;;;10.70;99.90;;;;;;5121441;27;20284;-79
2023/03/23 02:55:29;;;;;;;13.17;7.20;;;10.70;99.90;;;;;;5157363;27;20275;-79
2023/03/23 02:57:56;;;;;;;13.20;6.80;;;10.70;99.90;;;;;;5157137;27;20609;-78
2023/03/23 03:00:22;;;;;;;14.23;7.50;;;10.70;99.90;;;;;;5157337;27;20345;-79
2023/03/23 03:02:52;;;;;;;16.00;7.50;;;10.70;99.90;;;;;;5139165;27;20759;-79
2023/03/23 03:05:24;;;;;;;12.23;6.80;;;10.70;99.90;;;;;;5138248;27;20102;-78
2023/03/23 03:08:15;;;;;;;14.20;6.57;;;10.70;99.90;;;;;;5138231;27;20375;-79
2023/03/23 03:11:05;;;;;;;12.50;6.70;;;10.70;99.90;;;;;;5157097;27;20276;-79
2023/03/23 03:13:53;;;;;;;14.03;7.20;;;10.70;99.90;;;;;;5157333;27;20280;-79
2023/03/23 03:16:31;;;;;;;11.50;6.30;;;10.70;99.90;;;;;;5156786;27;20280;-79
2023/03/23 03:18:57;;;;;;;14.63;6.70;;;10.70;99.90;;;;;;5156619;27;20340;-79
2023/03/23 03:21:27;;;;;;;12.10;6.70;;;10.80;99.90;;;;;;5156791;27;20284;-79
2023/03/23 03:23:58;;;;;;;10.83;6.07;;;10.80;99.90;;;;;;5156697;27;20089;-78
2023/03/23 03:26:29;;;;;;;16.03;6.93;;;10.80;99.90;;;;;;5120892;27;20333;-78
2023/03/23 03:28:55;;;;;;;14.70;6.30;;;10.80;99.90;;;;;;5156745;27;20272;-78
2023/03/23 03:31:30;;;;;;;11.73;6.67;;;10.70;99.90;;;;;;5156308;27;20272;-78
2023/03/23 03:33:57;;;;;;;14.13;6.80;;;10.70;99.90;;;;;;5156696;27;20268;-77
2023/03/23 03:36:34;;;;;;;13.33;5.07;;;10.70;99.90;;;;;;5156241;27;20330;-75
2023/03/23 03:39:04;;;;;;;12.90;6.13;;;10.70;99.90;;;;;;5155994;27;20822;-77
2023/03/23 03:41:30;;;;;;;13.27;6.50;;;10.70;99.90;;;;;;5156624;27;20269;-75
2023/03/23 03:43:56;;;;;;;12.10;7.13;;;10.70;99.90;;;;;;5156448;27;20356;-76
2023/03/23 03:46:21;;;;;;;15.83;7.37;;;10.70;99.90;;;;;;5137367;27;20478;-76
2023/03/23 03:48:47;;;;;;;13.03;6.60;;;10.60;99.90;;;;;;5156413;27;20542;-76
2023/03/23 03:51:13;;;;;;;14.47;7.07;;;10.70;99.90;;;;;;5155764;27;20043;-76
2023/03/23 03:53:38;;;;;;;16.50;7.47;;;10.70;99.90;;;;;;5156468;27;20407;-76
2023/03/23 03:56:05;;;;;;;10.67;5.67;;;10.60;99.90;;;;;;5137578;27;20043;-76
2023/03/23 03:58:31;;;;;;;15.97;6.30;;;10.60;99.90;;;;;;5156064;27;20498;-75
2023/03/23 04:00:59;;;;;;;13.43;5.30;;;10.60;99.90;;;;;;5155985;27;20279;-76
2023/03/23 04:03:26;;;;;;;11.33;4.07;;;10.60;99.90;;;;;;5137481;27;20272;-77
2023/03/23 04:05:54;;;;;;;9.07;3.93;;;10.60;99.90;;;;;;5155517;27;20303;-77
2023/03/23 04:08:24;;;;;;;6.37;3.53;;;10.50;99.90;;;;;;5137337;27;20322;-77
2023/03/23 04:10:50;;;;;;;10.67;4.27;;;10.50;99.90;;;;;;5155781;27;20291;-77
2023/03/23 04:13:16;;;;;;;9.43;5.20;;;10.50;99.90;;;;;;5155553;27;20272;-78
2023/03/23 04:15:43;;;;;;;8.30;4.73;;;10.50;99.90;;;;;;5155915;27;20043;-78
2023/03/23 04:18:08;;;;;;;12.50;5.13;;;10.50;99.90;;;;;;5155500;27;20369;-77
2023/03/23 04:20:34;;;;;;;9.70;3.60;;;10.50;99.90;;;;;;5155867;27;20322;-77
2023/03/23 04:23:01;;;;;;;9.27;4.30;;;10.50;99.90;;;;;;5155679;27;20046;-78
2023/03/23 04:25:27;;;;;;;9.83;4.67;;;10.50;99.90;;;;;;5136809;27;20047;-78
2023/03/23 04:27:53;;;;;;;10.97;4.10;;;10.50;99.90;;;;;;5155534;27;20287;-78
2023/03/23 04:30:21;;;;;;;8.70;2.80;;;10.40;99.90;;;;;;5155256;27;20272;-78
2023/03/23 04:32:51;;;;;;;8.87;2.43;;;10.40;99.90;;;;;;5155417;27;20283;-77
2023/03/23 04:35:19;;;;;;;11.07;2.53;;;10.30;99.90;;;;;;5155135;27;20268;-78
2023/03/23 04:37:45;;;;;;;7.37;2.30;;;10.30;99.90;;;;;;5155288;27;20340;-78
2023/03/23 04:40:14;;;;;;;10.87;2.87;;;10.20;99.90;;;;;;5155091;27;20274;-77
2023/03/23 04:42:45;;;;;;;10.13;2.93;;;10.20;99.90;;;;;;5155297;27;20313;-78
2023/03/23 04:45:21;;;;;;;10.30;2.67;;;10.10;99.90;;;;;;5154932;27;20716;-78
2023/03/23 04:47:52;;;;;;;12.60;3.30;;;10.20;99.90;;;;;;5155599;27;20615;-78
2023/03/23 04:50:21;;;;;;;10.20;3.07;;;10.10;99.90;;;;;;5154909;27;20268;-78
2023/03/23 04:52:47;;;;;;;15.77;3.37;;;10.10;99.90;;;;;;5155074;27;20359;-77
2023/03/23 04:55:13;;;;;;;12.40;3.47;;;10.10;99.90;;;;;;5154664;27;20276;-78
2023/03/23 04:57:40;;;;;;;14.17;3.90;;;10.10;99.90;;;;;;5136560;27;20271;-77
2023/03/23 05:00:08;;;;;;;14.37;4.03;;;10.10;99.90;;;;;;5155013;27;20284;-78
2023/03/23 05:02:39;;;;;;;11.33;4.03;;;10.10;99.90;;;;;;5154580;27;20763;-77
2023/03/23 05:05:10;;;;;;;12.27;4.43;;;10.10;99.90;;;;;;5154781;27;20295;-78
2023/03/23 05:07:38;;;;;;;15.03;4.67;;;10.10;99.90;;;;;;5154911;27;20288;-77
2023/03/23 05:10:05;;;;;;;17.03;4.13;;;10.10;99.90;;;;;;5154954;27;20687;-77
2023/03/23 05:12:31;;;;;;;19.33;4.17;;;10.10;99.90;;;;;;5154126;27;20336;-78
2023/03/23 05:14:56;;;;;;;17.63;3.70;;;10.10;99.90;;;;;;5154782;27;20268;-77
2023/03/23 05:17:23;;;;;;;24.03;5.03;;;10.10;99.90;;;;;;5154472;27;20498;-78
2023/03/23 05:19:50;;;;;;;27.20;5.10;;;10.10;99.90;;;;;;5154774;27;20102;-77
2023/03/23 05:22:17;;;;;;;25.97;4.67;;;10.10;99.90;;;;;;5154413;27;20782;-77
2023/03/23 05:24:43;;;;;;;21.90;4.07;;;10.10;99.90;;;;;;5154558;27;20280;-77
2023/03/23 05:27:09;;;;;;;21.27;4.03;;;10.10;99.90;;;;;;5154680;27;20311;-77
2023/03/23 05:29:36;;;;;;;25.63;4.90;;;10.00;99.90;;;;;;5154519;27;20276;-77
2023/03/23 05:32:05;;;;;;;26.80;4.23;;;10.00;99.90;;;;;;5154601;27;20276;-77
2023/03/23 05:34:34;;;;;;;30.27;4.57;;;10.00;99.90;;;;;;5154306;27;20280;-78
2023/03/23 05:37:04;;;;;;;22.37;4.07;;;10.00;99.90;;;;;;5136272;27;20315;-77
2023/03/23 05:39:32;;;;;;;19.80;4.10;;;10.00;99.90;;;;;;5135898;27;20367;-77
2023/03/23 05:41:58;;;;;;;20.70;5.00;;;9.90;99.90;;;;;;5154494;27;20340;-77
2023/03/23 05:44:24;;;;;;;22.60;4.57;;;9.90;99.90;;;;;;5154102;27;20320;-78
2023/03/23 05:46:50;;;;;;;27.70;5.67;;;9.90;99.90;;;;;;5154378;27;20288;-77
2023/03/23 05:49:16;;;;;;;18.87;3.87;;;9.90;99.90;;;;;;5154262;27;20325;-77
2023/03/23 05:51:44;;;;;;;19.93;3.93;;;9.90;99.90;;;;;;5119065;27;20045;-77
2023/03/23 05:54:10;;;;;;;25.87;4.73;;;9.90;99.90;;;;;;5154401;27;20280;-78
2023/03/23 05:56:36;;;;;;;30.17;6.03;;;9.90;99.90;;;;;;5154074;27;20786;-78
2023/03/23 05:59:03;;;;;;;28.67;5.60;;;10.00;99.90;;;;;;5154409;27;20283;-78
2023/03/23 06:01:29;;;;;;;23.27;4.50;;;10.00;99.90;;;;;;5154058;27;20284;-78
2023/03/23 06:03:58;;;;;;;26.60;4.53;;;10.00;99.90;;;;;;5154243;27;20282;-78
2023/03/23 06:06:32;;;;;;;24.87;4.33;;;10.00;99.90;;;;;;5153583;27;20311;-77
2023/03/23 06:08:58;;;;;;;22.33;4.80;;;10.00;99.90;;;;;;5154311;27;20337;-77
2023/03/23 06:11:25;;;;;;;28.57;4.73;;;10.10;99.90;;;;;;5135556;27;20276;-78
2023/03/23 06:13:52;;;;;;;19.60;4.43;;;10.10;99.90;;;;;;5154237;27;20323;-78
2023/03/23 06:16:18;;;;;;;25.00;4.27;;;10.10;99.90;;;;;;5153876;27;20283;-78
2023/03/23 06:18:45;;;;;;;24.90;4.47;;;10.10;99.90;;;;;;5153911;27;20760;-77
2023/03/23 06:21:11;;;;;;;25.70;4.97;;;10.00;99.90;;;;;;5154106;27;20279;-76
2023/03/23 06:23:37;;;;;;;19.47;3.00;;;10.00;99.90;;;;;;5153816;27;20291;-77
2023/03/23 06:26:06;;;;;;;14.63;3.43;;;10.00;99.90;;;;;;5157713;27;20296;-77
2023/03/23 06:28:32;;;;;;;22.33;3.70;;;9.90;99.90;;;;;;5157559;27;20043;-77
2023/03/23 06:31:06;;;;;;;19.03;4.07;;;9.90;99.90;;;;;;5139497;27;20284;-77
2023/03/23 06:33:33;;;;;;;20.43;4.20;;;9.80;99.90;;;;;;5139076;27;20635;-78
2023/03/23 06:35:59;;;;;;;11.67;2.97;;;9.80;99.90;;;;;;5157841;27;20273;-78
2023/03/23 06:38:26;;;;;;;12.67;2.37;;;9.70;99.90;;;;;;5157463;27;20371;-78
2023/03/23 06:40:55;;;;;;;11.87;2.67;;;9.70;99.90;;;;;;5157600;27;20287;-78
2023/03/23 06:43:21;;;;;;;14.60;3.13;;;9.70;99.90;;;;;;5138993;27;20295;-77
2023/03/23 06:45:48;;;;;;;14.37;2.80;;;9.60;99.90;;;;;;5138976;27;20292;-77
2023/03/23 06:48:14;;;;;;;21.90;3.80;;;9.60;99.90;;;;;;5157414;27;20619;-77
2023/03/23 06:50:44;;;;;;;20.30;3.90;;;9.60;99.90;;;;;;5157166;27;20276;-77
2023/03/23 06:53:10;;;;;;;25.03;4.47;;;9.60;99.90;;;;;;5157572;27;20315;-77
2023/03/23 06:55:37;;;;;;;19.77;4.33;;;9.60;99.90;;;;;;5138723;27;20275;-77
2023/03/23 06:58:05;;;;;;;29.80;5.43;;;9.70;99.90;;;;;;5157310;27;20752;-77
2023/03/23 07:00:32;;;;;;;28.47;5.63;;;9.70;99.90;;;;;;5156941;27;20695;-77
2023/03/23 07:02:58;;;;;;;33.97;6.33;;;9.70;99.90;;;;;;5157183;27;20308;-77
2023/03/23 07:05:25;;;;;;;41.27;6.23;;;9.70;99.90;;;;;;5156921;27;20334;-77
2023/03/23 07:07:50;;;;;;;25.60;5.20;;;9.80;99.90;;;;;;5157300;27;20558;-77
2023/03/23 07:10:16;;;;;;;30.93;6.13;;;9.80;99.90;;;;;;5157014;27;20319;-77
2023/03/23 07:12:42;;;;;;;29.40;5.80;;;9.90;99.90;;;;;;5156768;27;20089;-78
2023/03/23 07:15:10;;;;;;;39.67;7.10;;;9.90;99.90;;;;;;5138968;27;20046;-77
2023/03/23 07:17:37;;;;;;;33.20;7.43;;;10.00;99.90;;;;;;5156727;27;20046;-78
2023/03/23 07:20:04;;;;;;;32.90;5.67;;;10.00;99.90;;;;;;5157037;27;20268;-77
2023/03/23 07:22:30;;;;;;;37.33;7.60;;;10.10;99.90;;;;;;5156657;27;20275;-78
2023/03/23 07:24:56;;;;;;;29.73;5.97;;;10.50;99.90;;;;;;5156733;27;20292;-77
2023/03/23 07:27:23;;;;;;;36.73;6.13;;;10.90;99.90;;;;;;5138475;27;20609;-75
2023/03/23 07:29:49;;;;;;;29.37;5.63;;;11.50;99.90;;;;;;5156700;27;20038;-76
2023/03/23 07:32:15;;;;;;;23.97;4.77;;;12.40;99.90;;;;;;5156973;27;20291;-75
2023/03/23 07:34:41;;;;;;;27.40;6.00;;;13.10;99.90;;;;;;5137815;27;20288;-76
2023/03/23 07:37:07;;;;;;;24.60;5.93;;;13.80;99.90;;;;;;5138037;27;20394;-76
2023/03/23 07:39:33;;;;;;;27.83;5.33;;;13.90;99.90;;;;;;5155822;27;20759;-75
2023/03/23 07:42:00;;;;;;;30.87;5.57;;;13.60;99.90;;;;;;5137874;27;20315;-75
2023/03/23 07:44:25;;;;;;;30.07;6.00;;;13.20;99.90;;;;;;5156209;27;20308;-76
2023/03/23 07:46:51;;;;;;;20.10;5.03;;;12.80;99.90;;;;;;5137557;27;20350;-76
2023/03/23 07:49:18;;;;;;;26.10;5.57;;;12.50;99.90;;;;;;5156521;27;20050;-76
2023/03/23 07:51:45;;;;;;;24.63;5.87;;;12.30;99.90;;;;;;5156011;27;20039;-76
2023/03/23 07:54:11;;;;;;;25.80;5.57;;;12.10;99.90;;;;;;5120747;27;20284;-76
2023/03/23 07:56:39;;;;;;;29.80;7.70;;;11.90;99.90;;;;;;5155899;27;20276;-76
2023/03/23 07:59:06;;;;;;;27.80;6.43;;;11.80;99.90;;;;;;5156098;27;20316;-75
2023/03/23 08:01:32;;;;;;;26.30;5.37;;;11.70;99.90;;;;;;5155764;27;20343;-75
2023/03/23 08:03:59;;;;;;;28.07;5.10;;;11.60;99.90;;;;;;5156047;27;20276;-77
2023/03/23 08:06:26;;;;;;;28.07;7.20;;;11.60;99.90;;;;;;5155749;27;20300;-76
2023/03/23 08:08:52;;;;;;;26.47;5.90;;;11.60;99.90;;;;;;5155342;27;20822;-77
2023/03/23 08:11:19;;;;;;;35.03;6.33;;;11.60;99.90;;;;;;5155904;27;20348;-74
2023/03/23 08:13:46;;;;;;;28.07;5.87;;;11.60;99.90;;;;;;5155600;27;20269;-75
2023/03/23 08:16:13;;;;;;;33.50;7.20;;;11.50;99.90;;;;;;5155810;27;20596;-77
2023/03/23 08:18:39;;;;;;;25.43;6.20;;;11.50;99.90;;;;;;5155573;27;20283;-77
2023/03/23 08:21:08;;;;;;;30.77;6.07;;;11.40;99.90;;;;;;5137748;27;20661;-78
2023/03/23 08:23:35;;;;;;;34.60;7.10;;;11.40;99.90;;;;;;5155362;27;20661;-78
2023/03/23 08:26:01;;;;;;;29.70;5.87;;;11.40;99.90;;;;;;5155549;27;20299;-77
2023/03/23 08:28:27;;;;;;;32.40;6.03;;;11.40;99.90;;;;;;5155559;27;20718;-74
2023/03/23 08:30:52;;;;;;;34.23;6.43;;;11.40;99.90;;;;;;5154904;27;20042;-75
2023/03/23 08:33:20;;;;;;;35.93;8.03;;;11.40;99.90;;;;;;5155121;27;20054;-76
2023/03/23 08:35:54;;;;;;;32.93;6.43;;;11.40;99.90;;;;;;5155134;27;20045;-76
2023/03/23 08:38:21;;;;;;;33.03;6.30;;;11.40;99.90;;;;;;5137361;27;20329;-76
2023/03/23 08:40:47;;;;;;;30.63;7.77;;;11.50;99.90;;;;;;5155063;27;20831;-76
2023/03/23 08:43:13;;;;;;;35.23;8.00;;;11.60;99.90;;;;;;5155543;27;20327;-75
2023/03/23 08:45:39;;;;;;;38.17;7.47;;;11.60;99.90;;;;;;5119485;27;20315;-77
2023/03/23 08:48:07;;;;;;;36.40;7.20;;;11.60;99.90;;;;;;5154687;27;20039;-77
2023/03/23 08:50:33;;;;;;;37.50;7.83;;;11.60;99.90;;;;;;5119423;27;20386;-78
2023/03/23 08:52:59;;;;;;;35.10;7.10;;;11.70;99.90;;;;;;5155182;27;20276;-76
2023/03/23 08:55:26;;;;;;;36.83;7.73;;;11.60;99.90;;;;;;5155133;27;20049;-76
2023/03/23 08:57:52;;;;;;;29.63;5.70;;;11.60;99.90;;;;;;5135951;27;20499;-76
2023/03/23 09:00:20;;;;;;;31.03;6.83;;;11.60;99.90;;;;;;5136891;27;20441;-76
2023/03/23 09:02:52;;;;;;;36.67;5.93;;;11.70;99.90;;;;;;5136265;27;20288;-75
2023/03/23 09:05:21;;;;;;;30.23;7.07;;;11.70;99.90;;;;;;5155038;27;20685;-79
2023/03/23 09:07:50;;;;;;;38.90;8.17;;;11.70;99.90;;;;;;5136189;27;20296;-76
2023/03/23 09:10:17;;;;;;;34.20;6.33;;;11.80;99.90;;;;;;5154887;27;20341;-76
2023/03/23 09:12:44;;;;;;;31.80;7.33;;;11.80;99.90;;;;;;5136312;27;20751;-74
2023/03/23 09:15:13;;;;;;;33.20;6.90;;;11.90;99.90;;;;;;5155066;27;20284;-76
2023/03/23 09:17:42;;;;;;;32.27;6.90;;;11.90;99.90;;;;;;5154614;27;20294;-76
2023/03/23 09:20:13;;;;;;;35.13;7.33;;;12.00;99.90;;;;;;5136634;27;20284;-76
2023/03/23 09:22:44;;;;;;;29.73;7.33;;;12.10;99.90;;;;;;5136143;27;20288;-76
2023/03/23 09:25:14;;;;;;;30.50;6.40;;;12.20;99.90;;;;;;5154882;27;20646;-76
2023/03/23 09:27:42;;;;;;;36.20;9.37;;;12.30;99.90;;;;;;5154484;27;20284;-79
2023/03/23 09:30:11;;;;;;;40.03;8.17;;;12.40;99.90;;;;;;5136505;27;20287;-76
2023/03/23 09:32:38;;;;;;;32.80;7.20;;;12.50;99.90;;;;;;5136130;27;20292;-79
2023/03/23 09:35:08;;;;;;;37.87;7.70;;;12.60;99.90;;;;;;5154556;27;20319;-77
2023/03/23 09:37:35;;;;;;;30.63;7.20;;;12.60;99.90;;;;;;5154283;27;20759;-75
2023/03/23 09:40:03;;;;;;;26.57;6.30;;;12.60;99.90;;;;;;5154337;27;20363;-79
2023/03/23 09:42:51;;;;;;;34.07;6.13;;;12.60;99.90;;;;;;5154289;27;20355;-78
2023/03/23 09:45:25;;;;;;;31.83;7.03;;;12.50;99.90;;;;;;5153237;27;20300;-82
2023/03/23 09:48:09;;;;;;;30.23;6.67;;;12.40;99.90;;;;;;5135413;27;20284;-78
2023/03/23 09:50:37;;;;;;;28.43;6.33;;;12.30;99.90;;;;;;5133098;27;20287;-76
2023/03/23 09:53:24;;;;;;;33.87;8.00;;;12.30;99.90;;;;;;5153534;27;20272;-77
2023/03/23 09:55:50;;;;;;;30.50;7.17;;;12.20;99.90;;;;;;5134364;27;20343;-77
2023/03/23 09:58:34;;;;;;;27.43;6.07;;;12.30;99.90;;;;;;5102553;27;20280;-77
2023/03/23 10:01:10;;;;;;;31.77;6.63;;;12.40;99.90;;;;;;5155325;27;20288;-78
2023/03/23 10:03:45;;;;;;;28.57;6.67;;;12.40;99.90;;;;;;5122251;27;20288;-77
2023/03/23 10:06:15;;;;;;;30.77;7.10;;;12.50;99.90;;;;;;5157727;27;20304;-77
2023/03/23 10:09:05;;;;;;;22.73;5.90;;;12.50;99.90;;;;;;5137397;27;20286;-78
2023/03/23 10:11:49;;;;;;;28.27;5.60;;;12.50;99.90;;;;;;5157228;27;20283;-79
2023/03/23 10:14:52;;;;;;;26.30;5.77;;;12.60;99.90;;;;;;5157454;27;20333;-79
2023/03/23 10:17:44;;;;;;;30.97;5.80;;;12.60;99.90;;;;;;5109817;27;20273;-80
2023/03/23 10:20:14;;;;;;;29.20;6.33;;;12.60;99.90;;;;;;5131431;27;21005;-80
2023/03/23 10:22:51;;;;;;;29.53;6.03;;;12.60;99.90;;;;;;5120662;27;20349;-82
2023/03/23 10:25:22;;;;;;;25.03;5.40;;;12.50;99.90;;;;;;5151816;27;20364;-84
2023/03/23 10:28:15;;;;;;;23.90;6.13;;;12.50;99.90;;;;;;5130575;27;20361;-86
2023/03/23 10:30:53;;;;;;;31.87;6.20;;;12.40;99.90;;;;;;5149137;27;20280;-88
2023/03/23 10:33:46;;;;;;;26.27;5.73;;;12.30;99.90;;;;;;5113854;27;20344;-86
2023/03/23 10:36:37;;;;;;;25.03;5.83;;;12.30;99.90;;;;;;5149774;27;20271;-87
2023/03/23 10:39:09;;;;;;;25.13;5.83;;;12.20;99.90;;;;;;5150468;27;20517;-83
2023/03/23 10:41:35;;;;;;;32.00;6.00;;;12.20;99.90;;;;;;5148929;27;20288;-84
2023/03/23 10:44:07;;;;;;;28.63;6.57;;;12.10;99.90;;;;;;5152279;27;20625;-84
2023/03/23 10:47:13;;;;;;;25.20;5.90;;;12.00;99.90;;;;;;5149489;27;20344;-82
2023/03/23 10:49:45;;;;;;;26.00;6.00;;;12.00;99.90;;;;;;5043429;28;20490;-83
2023/03/23 10:52:26;;;;;;;19.20;5.57;;;12.00;99.90;;;;;;5050551;28;20298;-83
2023/03/23 10:54:58;;;;;;;22.97;4.90;;;12.10;99.90;;;;;;5109926;27;20300;-84
2023/03/23 10:57:28;;;;;;;27.03;5.60;;;12.10;99.90;;;;;;5136609;27;20312;-78
2023/03/23 11:00:26;;;;;;;22.30;5.07;;;12.20;99.90;;;;;;5142973;27;20284;-81
2023/03/23 11:03:21;;;;;;;23.43;4.87;;;12.20;99.90;;;;;;5150787;27;20311;-85
2023/03/23 11:06:09;;;;;;;22.67;6.13;;;12.20;99.90;;;;;;5129189;27;20305;-84
2023/03/23 11:08:55;;;;;;;22.43;5.37;;;12.10;99.90;;;;;;5134960;27;20292;-83
2023/03/23 11:11:32;;;;;;;25.70;5.77;;;12.10;99.90;;;;;;5131588;27;20284;-83
2023/03/23 11:14:12;;;;;;;19.73;4.70;;;12.10;99.90;;;;;;5148978;27;20595;-78
2023/03/23 11:16:53;;;;;;;21.60;4.53;;;12.10;99.90;;;;;;5150540;27;20296;-80
2023/03/23 11:19:45;;;;;;;19.20;4.83;;;12.20;99.90;;;;;;5131953;27;20341;-81
2023/03/23 11:22:27;;;;;;;19.27;4.33;;;12.20;99.90;;;;;;5114887;27;20328;-79
2023/03/23 11:24:55;;;;;;;19.80;4.60;;;12.10;99.90;;;;;;5148912;27;20276;-79
2023/03/23 11:27:22;;;;;;;21.77;5.07;;;12.10;99.90;;;;;;5151063;27;20272;-79
2023/03/23 11:29:59;;;;;;;23.90;4.83;;;12.10;99.90;;;;;;5132822;27;20363;-79
2023/03/23 11:32:28;;;;;;;18.00;4.57;;;12.10;99.90;;;;;;5151406;27;20330;-78
2023/03/23 11:34:59;;;;;;;22.13;5.77;;;12.10;99.90;;;;;;5131157;27;20375;-79
2023/03/23 11:37:28;;;;;;;19.47;4.13;;;12.10;99.90;;;;;;5150755;27;20364;-78
2023/03/23 11:40:14;;;;;;;21.23;4.17;;;12.10;99.90;;;;;;5150236;27;20319;-78
2023/03/23 11:42:44;;;;;;;;;;;12.10;99.90;;;;;;5151478;27;20276;-78
2023/03/23 11:45:18;;;;;;;20.83;4.37;;;12.00;99.90;;;;;;5148878;27;19944;-78
2023/03/23 11:48:33;;;;;;;24.77;5.20;;;12.00;99.90;;;;;;5150622;27;20635;-78
2023/03/23 11:51:21;;;;;;;17.40;3.40;;;12.00;99.90;;;;;;5045995;28;20303;-79
2023/03/23 11:54:13;;;;;;;15.03;3.63;;;12.00;99.90;;;;;;5044393;28;20275;-81
2023/03/23 11:56:42;;;;;;;14.57;4.63;;;12.00;99.90;;;;;;5101497;27;20285;-78
2023/03/23 11:59:29;;;;;;;15.50;3.67;;;12.10;99.90;;;;;;5131315;27;20998;-77
2023/03/23 12:01:58;;;;;;;20.87;4.83;;;12.10;99.90;;;;;;5155611;27;20288;-77
2023/03/23 12:04:45;;;;;;;20.40;3.87;;;12.10;99.90;;;;;;5156607;27;20371;-76
2023/03/23 12:07:39;;;;;;;17.13;4.60;;;12.10;99.90;;;;;;5155179;27;20307;-77
2023/03/23 12:10:26;;;;;;;20.90;4.27;;;12.20;99.90;;;;;;5155601;27;20283;-77
2023/03/23 12:12:58;;;;;;;19.93;4.17;;;12.30;99.90;;;;;;5155569;27;20288;-79
2023/03/23 12:15:52;;;;;;;21.87;4.47;;;12.50;99.90;;;;;;5156265;27;20282;-77
2023/03/23 12:18:41;;;;;;;25.00;5.07;;;12.60;99.90;;;;;;5137131;27;20648;-77
2023/03/23 12:21:40;;;;;;;22.40;4.37;;;12.60;99.90;;;;;;5144609;27;20296;-77
2023/03/23 12:24:49;;;;;;;21.73;4.60;;;12.70;99.90;;;;;;5155372;27;20800;-77
2023/03/23 12:27:37;;;;;;;20.47;5.03;;;12.70;99.90;;;;;;5108967;27;20284;-78
2023/03/23 12:30:20;;;;;;;18.53;4.93;;;12.70;99.90;;;;;;5155316;27;20276;-83
2023/03/23 12:33:04;;;;;;;22.70;4.50;;;12.80;99.90;;;;;;5120332;27;20311;-80
2023/03/23 12:35:39;;;;;;;21.77;4.13;;;12.80;99.90;;;;;;5136871;27;20296;-78
2023/03/23 12:38:25;;;;;;;;;;;12.80;99.90;;;;;;5155628;27;20274;-76
2023/03/23 12:41:28;;;;;;;20.98;4.60;;;12.90;99.90;;;;;;5137027;27;19919;-79
2023/03/23 12:44:09;;;;;;;20.33;4.10;;;12.90;99.90;;;;;;5155455;27;20051;-78
2023/03/23 12:46:42;;;;;;;17.40;3.80;;;13.00;99.90;;;;;;5155139;27;20747;-78
2023/03/23 12:49:18;;;;;;;20.23;4.13;;;13.10;99.90;;;;;;5154968;27;20669;-78
2023/03/23 12:52:18;;;;;;;15.17;4.27;;;13.10;99.90;;;;;;5155504;27;20276;-77
2023/03/23 12:55:11;;;;;;;22.20;4.83;;;13.10;99.90;;;;;;5155144;27;20291;-78
2023/03/23 12:58:13;;;;;;;19.67;4.07;;;13.20;99.90;;;;;;5155150;27;20279;-80
2023/03/23 13:00:58;;;;;;;20.77;4.43;;;13.20;99.90;;;;;;5154868;27;20311;-78
2023/03/23 13:03:34;;;;;;;20.23;4.25;;;13.30;99.90;;;;;;5155023;27;20284;-78